createdAt,value
2022-11-23T00:01:39.884Z,1.20
2022-11-23T00:04:11.925Z,1.07
2022-11-23T00:06:40.683Z,1.40
2022-11-23T00:09:09.488Z,1.17
2022-11-23T00:11:37.926Z,1.00
2022-11-23T00:14:07.920Z,1.33
2022-11-23T00:16:36.501Z,1.40
2022-11-23T00:19:05.321Z,1.33
2022-11-23T00:21:34.398Z,1.33
2022-11-23T00:24:02.899Z,1.10
2022-11-23T00:26:31.422Z,1.00
2022-11-23T00:29:00.123Z,1.10
2022-11-23T00:31:30.489Z,1.10
2022-11-23T00:33:59.339Z,1.13
2022-11-23T00:36:29.442Z,1.10
2022-11-23T00:39:00.807Z,1.60
2022-11-23T00:41:29.829Z,1.40
2022-11-23T00:43:58.172Z,0.90
2022-11-23T00:46:29.813Z,1.30
2022-11-23T00:49:00.514Z,1.20
2022-11-23T00:51:31.976Z,1.30
2022-11-23T00:54:01.514Z,1.40
2022-11-23T00:56:31.269Z,1.30
2022-11-23T00:59:01.662Z,1.10
2022-11-23T01:01:34.934Z,1.10
2022-11-23T01:04:06.123Z,1.20
2022-11-23T01:06:36.928Z,1.00
2022-11-23T01:09:09.691Z,1.00
2022-11-23T01:11:38.227Z,1.30
2022-11-23T01:14:06.962Z,1.63
2022-11-23T01:16:39.103Z,0.90
2022-11-23T01:19:12.408Z,1.00
2022-11-23T01:21:40.927Z,1.00
2022-11-23T01:24:11.488Z,0.80
2022-11-23T01:26:40.658Z,1.17
2022-11-23T01:29:09.091Z,0.90
2022-11-23T01:31:46.506Z,1.10
2022-11-23T01:34:18.876Z,0.90
2022-11-23T01:36:47.480Z,1.30
2022-11-23T01:39:16.180Z,1.40
2022-11-23T01:41:45.894Z,1.20
2022-11-23T01:44:37.015Z,0.73
2022-11-23T01:47:09.365Z,1.00
2022-11-23T01:49:41.126Z,1.03
2022-11-23T01:52:33.372Z,0.90
2022-11-23T01:55:08.148Z,1.23
2022-11-23T01:57:41.912Z,1.20
2022-11-23T02:00:13.497Z,1.00
2022-11-23T02:02:50.764Z,0.73
2022-11-23T02:05:21.951Z,1.00
2022-11-23T02:07:51.481Z,1.00
2022-11-23T02:10:20.897Z,1.10
2022-11-23T02:12:49.531Z,1.10
2022-11-23T02:15:18.343Z,0.90
2022-11-23T02:17:48.252Z,1.07
2022-11-23T02:20:19.957Z,1.07
2022-11-23T02:23:00.540Z,1.13
2022-11-23T02:25:39.139Z,1.23
2022-11-23T02:28:08.943Z,1.13
2022-11-23T02:30:39.874Z,0.90
2022-11-23T02:33:08.980Z,1.17
2022-11-23T02:35:37.529Z,1.43
2022-11-23T02:38:07.962Z,1.00
2022-11-23T02:40:37.816Z,1.10
2022-11-23T02:43:06.198Z,0.77
2022-11-23T02:45:40.758Z,0.90
2022-11-23T02:48:09.558Z,1.20
2022-11-23T02:50:40.407Z,1.20
2022-11-23T02:53:08.959Z,1.03
2022-11-23T02:55:37.408Z,1.00
2022-11-23T02:58:07.866Z,1.07
2022-11-23T03:00:38.173Z,1.30
2022-11-23T03:03:06.761Z,0.87
2022-11-23T03:05:35.249Z,0.90
2022-11-23T03:08:07.688Z,1.00
2022-11-23T03:10:36.677Z,1.00
2022-11-23T03:13:05.164Z,1.03
2022-11-23T03:15:38.564Z,1.10
2022-11-23T03:18:08.245Z,0.80
2022-11-23T03:20:37.285Z,1.13
2022-11-23T03:23:06.549Z,0.70
2022-11-23T03:25:35.121Z,1.00
2022-11-23T03:28:06.164Z,0.90
2022-11-23T03:30:35.348Z,1.13
2022-11-23T03:33:07.942Z,0.83
2022-11-23T03:35:38.578Z,1.10
2022-11-23T03:38:32.885Z,0.70
2022-11-23T03:41:01.528Z,0.93
2022-11-23T03:43:50.188Z,1.00
2022-11-23T03:46:19.515Z,1.47
2022-11-23T03:48:49.239Z,0.67
2022-11-23T03:51:17.830Z,1.57
2022-11-23T03:53:46.248Z,1.07
2022-11-23T03:56:14.818Z,0.80
2022-11-23T03:58:47.503Z,1.03
2022-11-23T04:01:16.378Z,1.00
2022-11-23T04:03:49.002Z,0.97
2022-11-23T04:06:21.594Z,1.00
2022-11-23T04:09:09.600Z,0.90
2022-11-23T04:11:49.075Z,0.83
2022-11-23T04:14:17.627Z,1.00
2022-11-23T04:16:46.456Z,1.00
2022-11-23T04:19:16.150Z,1.00
2022-11-23T04:21:44.607Z,1.10
2022-11-23T04:24:12.992Z,1.30
2022-11-23T04:26:42.872Z,1.07
2022-11-23T04:29:12.571Z,0.97
2022-11-23T04:31:45.860Z,1.20
2022-11-23T04:34:19.463Z,1.40
2022-11-23T04:36:50.001Z,1.03
2022-11-23T04:39:20.519Z,1.40
2022-11-23T04:42:10.611Z,1.20
2022-11-23T04:44:39.546Z,1.20
2022-11-23T04:47:10.656Z,1.30
2022-11-23T04:49:40.907Z,1.43
2022-11-23T04:52:10.052Z,2.00
2022-11-23T04:54:44.768Z,1.37
2022-11-23T04:57:13.517Z,1.67
2022-11-23T04:59:42.655Z,1.57
2022-11-23T05:02:11.375Z,1.70
2022-11-23T05:04:57.947Z,1.50
2022-11-23T05:07:30.744Z,3.57
2022-11-23T05:10:04.757Z,2.80
2022-11-23T05:12:36.333Z,2.50
2022-11-23T05:15:05.008Z,2.60
2022-11-23T05:17:37.383Z,2.37
2022-11-23T05:20:13.188Z,2.87
2022-11-23T05:22:46.906Z,10.67
2022-11-23T05:25:19.045Z,8.13
2022-11-23T05:27:51.960Z,7.77
2022-11-23T05:30:21.068Z,4.43
2022-11-23T05:32:49.767Z,3.30
2022-11-23T05:35:21.760Z,2.90
2022-11-23T05:37:50.262Z,2.97
2022-11-23T05:40:18.875Z,2.63
2022-11-23T05:42:48.875Z,2.40
2022-11-23T05:45:22.286Z,2.00
2022-11-23T05:47:56.719Z,1.60
2022-11-23T05:50:40.279Z,1.20
2022-11-23T05:53:28.634Z,1.60
2022-11-23T05:56:04.798Z,1.50
2022-11-23T05:58:38.023Z,1.57
2022-11-23T06:01:06.638Z,1.00
2022-11-23T06:03:38.273Z,1.40
2022-11-23T06:06:09.144Z,1.17
2022-11-23T06:08:44.522Z,1.57
2022-11-23T06:11:17.695Z,1.40
2022-11-23T06:13:48.669Z,1.20
2022-11-23T06:16:18.750Z,1.00
2022-11-23T06:18:59.927Z,1.30
2022-11-23T06:21:29.722Z,1.73
2022-11-23T06:23:58.130Z,1.03
2022-11-23T06:26:27.952Z,0.90
2022-11-23T06:28:56.385Z,1.00
2022-11-23T06:31:24.918Z,1.20
2022-11-23T06:33:53.943Z,1.20
2022-11-23T06:36:22.326Z,1.20
2022-11-23T06:38:53.546Z,0.90
2022-11-23T06:41:30.888Z,0.97
2022-11-23T06:44:01.040Z,1.20
2022-11-23T06:46:39.232Z,2.30
2022-11-23T06:49:09.029Z,2.00
2022-11-23T06:51:38.966Z,2.37
2022-11-23T06:54:09.890Z,2.90
2022-11-23T06:56:38.469Z,2.37
2022-11-23T06:59:07.377Z,4.80
2022-11-23T07:01:35.769Z,4.33
2022-11-23T07:04:09.094Z,3.43
2022-11-23T07:06:45.312Z,2.50
2022-11-23T07:09:26.388Z,2.00
2022-11-23T07:12:19.021Z,2.53
2022-11-23T07:14:47.422Z,2.30
2022-11-23T07:17:17.582Z,2.17
2022-11-23T07:19:46.672Z,2.47
2022-11-23T07:22:15.131Z,3.47
2022-11-23T07:24:46.938Z,5.90
2022-11-23T07:27:17.707Z,3.00
2022-11-23T07:29:46.649Z,2.63
2022-11-23T07:32:15.593Z,3.10
2022-11-23T07:34:44.346Z,3.10
2022-11-23T07:37:12.768Z,2.80
2022-11-23T07:39:58.096Z,2.20
2022-11-23T07:42:36.040Z,2.50
2022-11-23T07:45:09.738Z,2.47
2022-11-23T07:47:41.031Z,2.67
2022-11-23T07:50:12.118Z,2.33
2022-11-23T07:52:41.363Z,2.20
2022-11-23T07:55:11.102Z,1.67
2022-11-23T07:57:40.826Z,1.60
2022-11-23T08:00:12.078Z,1.63
2022-11-23T08:02:57.883Z,2.30
2022-11-23T08:05:29.294Z,2.50
2022-11-23T08:08:00.672Z,2.40
2022-11-23T08:10:30.176Z,2.43
2022-11-23T08:13:00.468Z,2.60
2022-11-23T08:15:29.210Z,2.50
2022-11-23T08:17:57.883Z,2.30
2022-11-23T08:20:27.033Z,1.57
2022-11-23T08:22:55.949Z,2.00
2022-11-23T08:25:24.798Z,1.87
2022-11-23T08:27:57.001Z,1.70
2022-11-23T08:30:28.055Z,1.70
2022-11-23T08:32:56.471Z,1.50
2022-11-23T08:35:25.681Z,1.70
2022-11-23T08:37:54.084Z,1.73
2022-11-23T08:40:25.607Z,1.60
2022-11-23T08:42:54.344Z,1.80
2022-11-23T08:45:23.185Z,1.83
2022-11-23T08:47:53.188Z,1.30
2022-11-23T08:50:22.641Z,1.80
2022-11-23T08:52:57.091Z,2.20
2022-11-23T08:55:25.902Z,2.77
2022-11-23T08:57:56.836Z,1.93
2022-11-23T09:00:25.526Z,2.30
2022-11-23T09:02:57.081Z,2.23
2022-11-23T09:05:25.527Z,2.00
2022-11-23T09:07:53.905Z,2.67
2022-11-23T09:10:22.662Z,2.07
2022-11-23T09:12:51.088Z,1.60
2022-11-23T09:15:20.070Z,1.40
2022-11-23T09:17:48.490Z,1.13
2022-11-23T09:20:18.660Z,1.47
2022-11-23T09:22:52.601Z,1.47
2022-11-23T09:25:21.396Z,1.73
2022-11-23T09:27:50.223Z,1.30
2022-11-23T09:30:19.325Z,1.57
2022-11-23T09:32:47.658Z,1.57
2022-11-23T09:35:17.557Z,2.30
2022-11-23T09:37:45.869Z,1.70
2022-11-23T09:40:18.251Z,1.80
2022-11-23T09:43:10.003Z,1.70
2022-11-23T09:45:47.287Z,1.73
2022-11-23T09:48:38.959Z,1.80
2022-11-23T09:51:16.311Z,1.77
2022-11-23T09:53:48.979Z,1.37
2022-11-23T09:56:22.419Z,1.53
2022-11-23T09:58:55.409Z,2.03
2022-11-23T10:01:24.471Z,1.53
2022-11-23T10:03:52.931Z,1.80
2022-11-23T10:06:25.799Z,1.63
2022-11-23T10:09:22.729Z,2.07
2022-11-23T10:12:21.792Z,1.60
2022-11-23T10:15:05.182Z,1.80
2022-11-23T10:17:54.680Z,1.43
2022-11-23T10:20:40.206Z,1.50
2022-11-23T10:23:19.510Z,1.40
2022-11-23T10:25:51.220Z,1.70
2022-11-23T10:28:22.580Z,1.67
2022-11-23T10:31:01.808Z,1.10
2022-11-23T10:33:34.081Z,1.40
2022-11-23T10:36:02.440Z,0.80
2022-11-23T10:38:32.850Z,1.40
2022-11-23T10:41:07.465Z,1.47
2022-11-23T10:43:43.168Z,1.00
2022-11-23T10:46:33.339Z,1.50
2022-11-23T10:49:18.410Z,1.00
2022-11-23T10:51:58.525Z,1.60
2022-11-23T10:54:33.211Z,0.97
2022-11-23T10:57:04.727Z,1.50
2022-11-23T10:59:38.764Z,1.30
2022-11-23T11:02:19.590Z,1.10
2022-11-23T11:04:55.892Z,1.30
2022-11-23T11:07:30.674Z,1.20
2022-11-23T11:10:03.205Z,0.90
2022-11-23T11:12:35.913Z,1.30
2022-11-23T11:15:16.993Z,1.40
2022-11-23T11:17:45.523Z,1.00
2022-11-23T11:20:33.881Z,1.30
2022-11-23T11:23:05.895Z,1.37
2022-11-23T11:25:39.189Z,1.23
2022-11-23T11:28:23.934Z,1.57
2022-11-23T11:31:05.276Z,1.77
2022-11-23T11:33:40.389Z,2.10
2022-11-23T11:36:12.039Z,1.60
2022-11-23T11:38:45.995Z,1.33
2022-11-23T11:41:28.084Z,1.03
2022-11-23T11:44:06.235Z,2.37
2022-11-23T11:46:40.499Z,2.97
2022-11-23T11:49:14.918Z,1.87
2022-11-23T11:51:48.013Z,1.60
2022-11-23T11:54:26.973Z,1.13
2022-11-23T11:57:04.880Z,1.63
2022-11-23T11:59:42.800Z,2.00
2022-11-23T12:02:22.244Z,1.43
2022-11-23T12:05:01.315Z,1.53
2022-11-23T12:07:33.875Z,1.20
2022-11-23T12:10:10.991Z,1.27
2022-11-23T12:12:41.567Z,1.13
2022-11-23T12:15:47.735Z,1.30
2022-11-23T12:18:56.670Z,5.60
2022-11-23T12:22:05.412Z,9.43
2022-11-23T12:24:57.919Z,2.50
2022-11-23T12:27:43.416Z,1.60
2022-11-23T12:30:25.604Z,1.30
2022-11-23T12:33:22.196Z,1.47
2022-11-23T12:36:05.760Z,0.90
2022-11-23T12:38:48.505Z,1.20
2022-11-23T12:41:26.027Z,1.07
2022-11-23T12:44:39.782Z,1.87
2022-11-23T12:47:21.208Z,1.47
2022-11-23T12:49:55.935Z,1.30
2022-11-23T12:52:47.528Z,1.13
2022-11-23T12:55:24.849Z,1.30
2022-11-23T12:58:01.598Z,1.67
2022-11-23T13:00:36.101Z,1.33
2022-11-23T13:03:43.094Z,1.50
2022-11-23T13:06:44.047Z,1.53
2022-11-23T13:09:46.574Z,1.00
2022-11-23T13:12:27.962Z,1.27
2022-11-23T13:15:17.906Z,1.43
2022-11-23T13:17:55.874Z,1.20
2022-11-23T13:20:58.513Z,1.60
2022-11-23T13:23:26.925Z,1.30
2022-11-23T13:26:16.434Z,1.20
2022-11-23T13:28:46.136Z,1.33
2022-11-23T13:31:27.461Z,1.20
2022-11-23T13:33:58.315Z,1.50
2022-11-23T13:37:11.291Z,1.60
2022-11-23T13:40:05.111Z,1.20
2022-11-23T13:42:35.956Z,1.87
2022-11-23T13:45:30.358Z,1.47
2022-11-23T13:48:41.228Z,1.40
2022-11-23T13:51:06.467Z,1.60
2022-11-23T13:53:40.165Z,1.40
2022-11-23T13:56:32.382Z,1.10
2022-11-23T13:59:30.316Z,1.20
2022-11-23T14:02:35.410Z,1.43
2022-11-23T14:05:37.845Z,0.83
2022-11-23T14:08:08.488Z,1.10
2022-11-23T14:10:38.404Z,0.97
2022-11-23T14:13:16.985Z,1.00
2022-11-23T14:15:55.948Z,0.90
2022-11-23T14:18:45.809Z,0.90
2022-11-23T14:21:16.313Z,1.17
2022-11-23T14:24:27.173Z,0.80
2022-11-23T14:27:39.446Z,0.70
2022-11-23T14:30:29.613Z,0.73
2022-11-23T14:33:15.207Z,0.80
2022-11-23T14:35:52.823Z,0.93
2022-11-23T14:38:53.449Z,0.70
2022-11-23T14:41:25.308Z,0.80
2022-11-23T14:43:57.266Z,1.10
2022-11-23T14:46:25.964Z,2.60
2022-11-23T14:49:04.556Z,3.37
2022-11-23T14:51:34.798Z,2.80
2022-11-23T14:54:09.700Z,2.90
2022-11-23T14:56:40.825Z,1.73
2022-11-23T14:59:26.340Z,1.10
2022-11-23T15:01:58.832Z,1.03
2022-11-23T15:04:34.586Z,1.30
2022-11-23T15:07:08.010Z,1.00
2022-11-23T15:09:47.021Z,0.97
2022-11-23T15:12:43.084Z,0.90
2022-11-23T15:15:21.230Z,0.80
2022-11-23T15:17:54.107Z,0.90
2022-11-23T15:20:24.048Z,1.17
2022-11-23T15:22:52.990Z,0.93
2022-11-23T15:25:21.657Z,1.17
2022-11-23T15:27:50.237Z,1.20
2022-11-23T15:30:23.186Z,1.73
2022-11-23T15:32:59.925Z,1.17
2022-11-23T15:35:33.245Z,1.80
2022-11-23T15:38:02.816Z,2.50
2022-11-23T15:40:34.294Z,3.33
2022-11-23T15:43:03.028Z,2.27
2022-11-23T15:46:04.866Z,1.80
2022-11-23T15:48:37.118Z,2.27
2022-11-23T15:51:08.535Z,1.67
2022-11-23T15:53:50.260Z,7.80
2022-11-23T15:56:25.230Z,12.83
2022-11-23T15:58:54.795Z,7.60
2022-11-23T16:01:24.542Z,6.63
2022-11-23T16:03:55.745Z,7.17
2022-11-23T16:06:36.906Z,8.53
2022-11-23T16:09:51.306Z,8.97
2022-11-23T16:12:29.444Z,7.97
2022-11-23T16:15:00.211Z,6.03
2022-11-23T16:17:31.054Z,5.33
2022-11-23T16:20:04.906Z,5.80
2022-11-23T16:22:36.675Z,2.60
2022-11-23T16:25:08.867Z,2.10
2022-11-23T16:27:38.406Z,3.07
2022-11-23T16:30:08.529Z,3.03
2022-11-23T16:32:38.260Z,2.70
2022-11-23T16:35:19.377Z,2.43
2022-11-23T16:37:48.099Z,2.53
2022-11-23T16:40:17.027Z,2.27
2022-11-23T16:42:47.208Z,2.57
2022-11-23T16:45:15.754Z,4.97
2022-11-23T16:47:55.390Z,3.43
2022-11-23T16:50:24.406Z,3.37
2022-11-23T16:52:55.027Z,2.53
2022-11-23T16:55:23.621Z,1.87
2022-11-23T16:57:51.999Z,3.37
2022-11-23T17:00:23.023Z,2.00
2022-11-23T17:02:51.541Z,2.20
2022-11-23T17:05:24.212Z,3.97
2022-11-23T17:07:52.869Z,4.47
2022-11-23T17:10:21.325Z,5.10
2022-11-23T17:12:53.590Z,5.63
2022-11-23T17:15:24.611Z,4.90
2022-11-23T17:17:53.294Z,4.97
2022-11-23T17:20:23.720Z,5.37
2022-11-23T17:22:52.140Z,4.90
2022-11-23T17:25:20.756Z,4.50
2022-11-23T17:27:49.306Z,2.83
2022-11-23T17:30:20.759Z,3.23
2022-11-23T17:32:49.644Z,3.23
2022-11-23T17:35:18.580Z,2.47
2022-11-23T17:37:48.752Z,1.70
2022-11-23T17:40:18.504Z,1.53
2022-11-23T17:42:47.313Z,1.67
2022-11-23T17:45:16.153Z,1.63
2022-11-23T17:47:46.028Z,1.47
2022-11-23T17:50:19.436Z,1.90
2022-11-23T17:52:49.644Z,1.30
2022-11-23T17:55:19.133Z,1.33
2022-11-23T17:57:47.480Z,1.47
2022-11-23T18:00:20.984Z,1.40
2022-11-23T18:02:49.650Z,1.43
2022-11-23T18:05:21.802Z,1.43
2022-11-23T18:07:52.125Z,1.63
2022-11-23T18:10:21.028Z,1.23
2022-11-23T18:12:49.525Z,1.43
2022-11-23T18:15:18.069Z,1.60
2022-11-23T18:17:46.513Z,1.50
2022-11-23T18:20:15.618Z,1.83
2022-11-23T18:22:44.066Z,2.40
2022-11-23T18:25:13.826Z,1.50
2022-11-23T18:27:42.200Z,1.50
2022-11-23T18:30:11.917Z,1.53
2022-11-23T18:32:40.240Z,1.67
2022-11-23T18:35:10.391Z,1.57
2022-11-23T18:37:38.747Z,1.50
2022-11-23T18:40:08.517Z,1.67
2022-11-23T18:42:38.176Z,10.37
2022-11-23T18:45:08.820Z,6.90
2022-11-23T18:47:37.623Z,5.27
2022-11-23T18:50:07.101Z,3.07
2022-11-23T18:52:35.494Z,2.87
2022-11-23T18:55:03.884Z,3.03
2022-11-23T18:57:32.301Z,2.20
2022-11-23T19:00:02.517Z,1.97
2022-11-23T19:02:31.087Z,2.17
2022-11-23T19:04:59.828Z,1.70
2022-11-23T19:07:28.732Z,2.00
2022-11-23T19:09:57.476Z,1.70
2022-11-23T19:12:25.827Z,2.10
2022-11-23T19:14:54.234Z,2.50
2022-11-23T19:17:23.993Z,1.83
2022-11-23T19:19:52.402Z,2.17
2022-11-23T19:22:20.743Z,2.20
2022-11-23T19:24:49.295Z,2.43
2022-11-23T19:27:17.769Z,2.33
2022-11-23T19:29:46.219Z,2.50
2022-11-23T19:32:14.624Z,2.10
2022-11-23T19:34:44.375Z,2.43
2022-11-23T19:37:12.703Z,2.47
2022-11-23T19:39:41.069Z,2.10
2022-11-23T19:42:09.434Z,2.07
2022-11-23T19:44:37.808Z,2.20
2022-11-23T19:47:13.760Z,2.00
2022-11-23T19:49:45.283Z,1.73
2022-11-23T19:52:14.213Z,2.60
2022-11-23T19:54:42.568Z,2.53
2022-11-23T19:57:10.884Z,2.10
2022-11-23T19:59:39.261Z,2.00
2022-11-23T20:02:08.059Z,2.00
2022-11-23T20:04:36.522Z,1.87
2022-11-23T20:07:06.800Z,1.93
2022-11-23T20:09:35.872Z,1.93
2022-11-23T20:12:04.618Z,2.10
2022-11-23T20:14:32.982Z,1.90
2022-11-23T20:17:01.615Z,2.40
2022-11-23T20:19:30.041Z,2.07
2022-11-23T20:21:58.498Z,2.20
2022-11-23T20:24:28.301Z,2.37
2022-11-23T20:26:56.744Z,1.90
2022-11-23T20:29:25.239Z,2.07
2022-11-23T20:31:53.688Z,2.10
2022-11-23T20:34:26.152Z,1.80
2022-11-23T20:36:54.860Z,2.10
2022-11-23T20:39:23.357Z,1.90
2022-11-23T20:41:53.112Z,1.83
2022-11-23T20:44:21.432Z,2.00
2022-11-23T20:47:05.053Z,1.87
2022-11-23T20:49:33.656Z,1.97
2022-11-23T20:52:02.919Z,2.07
2022-11-23T20:54:31.607Z,2.90
2022-11-23T20:57:01.781Z,2.90
2022-11-23T20:59:31.349Z,2.47
2022-11-23T21:02:00.000Z,3.10
2022-11-23T21:04:28.576Z,2.47
2022-11-23T21:06:57.093Z,2.83
2022-11-23T21:09:25.561Z,2.63
2022-11-23T21:12:11.779Z,2.63
2022-11-23T21:14:41.562Z,2.30
2022-11-23T21:17:10.001Z,2.40
2022-11-23T21:19:43.614Z,2.13
2022-11-23T21:22:14.156Z,2.17
2022-11-23T21:24:43.401Z,2.37
2022-11-23T21:27:14.544Z,2.50
2022-11-23T21:29:45.136Z,2.17
2022-11-23T21:32:15.133Z,2.07
2022-11-23T21:34:43.934Z,2.23
2022-11-23T21:37:13.540Z,2.40
2022-11-23T21:39:43.214Z,1.77
2022-11-23T21:42:13.982Z,1.97
2022-11-23T21:44:43.662Z,2.00
2022-11-23T21:47:13.121Z,2.00
2022-11-23T21:49:41.615Z,1.90
2022-11-23T21:52:10.007Z,1.63
2022-11-23T21:54:38.497Z,1.80
2022-11-23T21:57:07.884Z,1.60
2022-11-23T21:59:36.384Z,1.53
2022-11-23T22:02:06.226Z,1.57
2022-11-23T22:04:34.950Z,1.50
2022-11-23T22:07:03.846Z,1.80
2022-11-23T22:09:34.301Z,2.10
2022-11-23T22:12:02.698Z,2.10
2022-11-23T22:14:31.809Z,2.00
2022-11-23T22:17:01.133Z,1.50
2022-11-23T22:19:30.895Z,2.30
2022-11-23T22:21:59.263Z,2.20
2022-11-23T22:24:27.694Z,2.40
2022-11-23T22:26:56.132Z,2.23
2022-11-23T22:29:24.512Z,1.90
2022-11-23T22:31:52.920Z,2.10
2022-11-23T22:34:21.320Z,1.70
2022-11-23T22:36:52.771Z,1.47
2022-11-23T22:39:21.140Z,1.80
2022-11-23T22:41:49.504Z,1.97
2022-11-23T22:44:17.836Z,1.90
2022-11-23T22:46:46.210Z,1.40
2022-11-23T22:49:14.581Z,1.37
2022-11-23T22:51:42.970Z,1.90
2022-11-23T22:54:12.710Z,2.17
2022-11-23T22:56:41.100Z,1.70
2022-11-23T22:59:09.522Z,2.13
2022-11-23T23:01:37.999Z,1.40
2022-11-23T23:04:06.608Z,1.70
2022-11-23T23:06:35.948Z,1.63
2022-11-23T23:09:07.671Z,1.60
2022-11-23T23:11:39.035Z,1.30
2022-11-23T23:14:07.905Z,1.70
2022-11-23T23:16:36.690Z,1.87
2022-11-23T23:19:06.298Z,1.47
2022-11-23T23:21:34.741Z,1.83
2022-11-23T23:24:03.409Z,1.50
2022-11-23T23:26:31.901Z,1.90
2022-11-23T23:29:02.306Z,1.70
2022-11-23T23:31:31.607Z,1.70
2022-11-23T23:34:01.147Z,1.93
2022-11-23T23:36:30.678Z,1.40
2022-11-23T23:38:59.248Z,1.57
2022-11-23T23:41:27.744Z,1.83
2022-11-23T23:43:56.327Z,1.80
2022-11-23T23:46:26.533Z,1.70
2022-11-23T23:48:55.074Z,1.80
2022-11-23T23:51:25.044Z,1.67
2022-11-23T23:53:54.161Z,2.10
2022-11-23T23:56:24.923Z,1.87
2022-11-23T23:58:55.867Z,2.27
